Time;durP1;ratioP1;P1;durP2;ratioP2;P2;SDS_P1;SDS_P2;PMS_P1;PMS_P2;Temp;Humidity;BMP_temperature;BMP_pressure;BME280_temperature;BME280_humidity;BME280_pressure;Samples;Min_cycle;Max_cycle;Signal;HPM_P1;HPM_P2
2020/12/15 00:00:30;;;;;;;7.03;1.70;;;;;;;9.66;100.00;100267.99;1847443;77;934725;-85
2020/12/15 00:03:00;;;;;;;5.30;1.83;;;;;;;9.72;100.00;100264.02;1811737;78;934750;-84
2020/12/15 00:05:30;;;;;;;7.00;2.00;;;;;;;9.29;100.00;100217.91;1858076;76;934570;-86
2020/12/15 00:08:00;;;;;;;3.57;1.97;;;;;;;9.48;100.00;100254.31;1809756;77;934825;-85
2020/12/15 00:10:30;;;;;;;4.53;1.98;;;;;;;9.46;100.00;100255.14;1818104;78;934519;-86
2020/12/15 00:13:00;;;;;;;7.00;2.07;;;;;;;9.41;100.00;100277.36;1810834;78;934623;-84
2020/12/15 00:15:30;;;;;;;5.83;1.83;;;;;;;9.36;100.00;100275.22;1786894;79;934479;-86
2020/12/15 00:18:00;;;;;;;4.70;2.00;;;;;;;9.42;100.00;100278.20;1850032;76;934571;-82
2020/12/15 00:20:31;;;;;;;6.20;2.13;;;;;;;9.42;100.00;100279.58;1792242;79;935029;-85
2020/12/15 00:23:03;;;;;;;7.47;2.17;;;;;;;9.42;100.00;100279.58;1850302;76;934757;-84
2020/12/15 00:25:33;;;;;;;3.80;1.90;;;;;;;9.46;100.00;100266.79;1821610;78;933474;-86
2020/12/15 00:28:03;;;;;;;7.27;2.00;;;;;;;9.52;100.00;100271.17;1850456;76;934520;-86
2020/12/15 00:30:32;;;;;;;4.80;1.93;;;;;;;9.59;100.00;100267.49;1820878;77;934724;-86
2020/12/15 00:33:02;;;;;;;4.90;2.00;;;;;;;9.42;100.00;100274.03;1849699;76;934732;-85
2020/12/15 00:35:32;;;;;;;8.53;2.20;;;;;;;9.38;100.00;100267.42;1821669;78;933530;-86
2020/12/15 00:38:02;;;;;;;6.93;2.27;;;;;;;9.30;100.00;100274.98;1808864;77;934613;-84
2020/12/15 00:40:32;;;;;;;5.47;2.00;;;;;;;9.20;100.00;100266.78;1861943;76;933293;-87
2020/12/15 00:43:02;;;;;;;6.40;2.00;;;;;;;9.05;100.00;100263.56;1809606;77;943123;-87
2020/12/15 00:45:32;;;;;;;6.10;2.00;;;;;;;9.21;100.00;100272.56;1844033;77;934571;-87
2020/12/15 00:48:02;;;;;;;5.60;1.80;;;;;;;9.01;100.00;100274.41;1809099;77;933544;-86
2020/12/15 00:50:32;;;;;;;9.33;2.17;;;;;;;8.88;100.00;100272.28;1821604;77;934556;-88
2020/12/15 00:53:02;;;;;;;8.60;2.00;;;;;;;9.07;100.00;100286.28;1850376;76;933440;-85
2020/12/15 00:55:32;;;;;;;7.83;2.20;;;;;;;9.12;100.00;100283.45;1821507;77;934584;-87
2020/12/15 00:58:01;;;;;;;9.27;2.53;;;;;;;9.22;100.00;100285.31;1809230;78;934611;-86
2020/12/15 01:00:32;;;;;;;7.27;2.27;;;;;;;9.37;100.00;100284.61;1821474;78;933446;-86
2020/12/15 01:03:02;;;;;;;8.17;2.77;;;;;;;9.37;100.00;100290.74;1809145;78;934669;-86
2020/12/15 01:05:32;;;;;;;7.13;2.57;;;;;;;9.42;100.00;100287.89;1820339;78;934671;-86
2020/12/15 01:08:02;;;;;;;15.23;3.07;;;;;;;9.52;100.00;100292.80;1850333;76;934696;-86
2020/12/15 01:10:32;;;;;;;7.33;2.20;;;;;;;9.60;100.00;100276.08;1821605;77;935651;-85
2020/12/15 01:13:02;;;;;;;8.53;2.27;;;;;;;9.44;100.00;100276.80;1809330;77;933512;-86
2020/12/15 01:15:32;;;;;;;8.47;2.43;;;;;;;9.42;100.00;100285.13;1821544;78;934549;-87
2020/12/15 01:18:01;;;;;;;11.17;2.63;;;;;;;9.44;100.00;100274.03;1808695;77;945283;-85
2020/12/15 01:20:32;;;;;;;8.33;2.10;;;;;;;9.30;100.00;100284.13;1791659;78;936587;-86
2020/12/15 01:23:03;;;;;;;7.20;2.13;;;;;;;9.38;100.00;100287.66;1850497;76;933565;-85
2020/12/15 01:25:33;;;;;;;8.23;2.37;;;;;;;9.27;100.00;100293.59;1821632;78;934722;-86
2020/12/15 01:28:03;;;;;;;5.97;1.90;;;;;;;9.09;100.00;100300.66;1850095;76;934532;-84
2020/12/15 01:30:33;;;;;;;8.23;2.43;;;;;;;9.02;100.00;100300.17;1821692;77;934478;-87
2020/12/15 01:33:03;;;;;;;9.57;2.33;;;;;;;9.17;100.00;100292.28;1850375;76;941931;-83
2020/12/15 01:35:32;;;;;;;6.77;2.63;;;;;;;9.10;100.00;100298.99;1821264;77;934590;-86
2020/12/15 01:38:02;;;;;;;7.33;2.23;;;;;;;9.14;100.00;100298.69;1849825;76;934642;-84
2020/12/15 01:40:32;;;;;;;10.33;2.00;;;;;;;9.18;100.00;100290.61;1820506;77;934593;-84
2020/12/15 01:43:02;;;;;;;9.87;2.30;;;;;;;9.11;100.00;100295.67;1850108;76;935558;-84
2020/12/15 01:45:32;;;;;;;9.17;2.20;;;;;;;8.98;100.00;100298.53;1821624;78;933487;-84
2020/12/15 01:48:03;;;;;;;6.60;2.00;;;;;;;9.06;100.00;100291.55;1809136;77;934495;-84
2020/12/15 01:50:33;;;;;;;7.43;2.60;;;;;;;8.88;100.00;100290.29;1819957;77;934471;-84
2020/12/15 01:53:05;;;;;;;11.27;2.60;;;;;;;8.97;100.00;100293.27;1807346;78;937507;-84
2020/12/15 01:55:37;;;;;;;9.70;2.17;;;;;;;8.97;100.00;100287.73;1862101;76;936574;-84
2020/12/15 01:58:08;;;;;;;8.90;2.23;;;;;;;8.97;100.00;100291.33;1809738;78;934629;-86
2020/12/15 02:00:39;;;;;;;8.17;2.03;;;;;;;8.95;100.00;100297.70;1862529;76;934747;-85
2020/12/15 02:03:09;;;;;;;6.83;2.08;;;;;;;9.02;100.00;100294.63;1809901;77;934713;-86
2020/12/15 02:05:39;;;;;;;9.50;2.20;;;;;;;9.21;100.00;100303.88;1862527;76;933515;-86
2020/12/15 02:08:08;;;;;;;8.00;2.50;;;;;;;8.98;100.00;100297.70;1809660;77;934606;-86
2020/12/15 02:10:38;;;;;;;7.53;1.90;;;;;;;8.97;100.00;100308.51;1781634;79;934529;-86
2020/12/15 02:13:08;;;;;;;8.23;2.33;;;;;;;8.93;100.00;100316.57;1832067;76;934523;-87
2020/12/15 02:15:39;;;;;;;5.67;2.10;;;;;;;8.81;100.00;100316.10;1821491;78;934437;-85
2020/12/15 02:18:09;;;;;;;7.67;2.00;;;;;;;8.84;100.00;100311.92;1850053;76;934482;-85
2020/12/15 02:20:41;;;;;;;11.37;2.87;;;;;;;8.83;100.00;100312.47;1820793;78;934565;-85
2020/12/15 02:23:11;;;;;;;7.20;2.57;;;;;;;8.78;100.00;100308.34;1809204;76;936565;-85
2020/12/15 02:25:41;;;;;;;10.20;2.40;;;;;;;8.85;100.00;100305.27;1791647;78;934870;-84
2020/12/15 02:28:11;;;;;;;11.50;2.37;;;;;;;8.85;100.00;100314.41;1850026;76;936533;-86
2020/12/15 02:30:41;;;;;;;9.43;2.40;;;;;;;8.85;100.00;100314.97;1821547;77;936614;-84
2020/12/15 02:33:11;;;;;;;8.68;2.50;;;;;;;8.79;100.00;100318.87;1809488;78;934621;-84
2020/12/15 02:35:41;;;;;;;8.33;2.00;;;;;;;8.63;100.00;100329.22;1821440;78;934471;-85
2020/12/15 02:38:11;;;;;;;7.40;2.30;;;;;;;8.77;100.00;100330.80;1778851;78;933412;-84
2020/12/15 02:40:41;;;;;;;6.07;2.30;;;;;;;8.63;100.00;100331.98;1821422;77;933213;-84
2020/12/15 02:43:11;;;;;;;6.83;2.40;;;;;;;8.74;100.00;100329.41;1808836;77;933784;-83
2020/12/15 02:45:41;;;;;;;11.43;1.93;;;;;;;8.83;100.00;100326.88;1813073;78;934449;-84
2020/12/15 02:48:11;;;;;;;8.63;2.50;;;;;;;8.86;100.00;100324.91;1801078;78;936654;-85
2020/12/15 02:50:41;;;;;;;7.53;3.03;;;;;;;8.80;100.00;100330.22;1843799;77;934475;-85
2020/12/15 02:53:11;;;;;;;7.20;2.30;;;;;;;8.61;100.00;100338.34;1809306;77;934513;-84
2020/12/15 02:55:41;;;;;;;8.77;2.10;;;;;;;8.60;100.00;100336.71;1821435;77;934489;-84
2020/12/15 02:58:11;;;;;;;11.88;3.17;;;;;;;8.82;100.00;100333.52;1779816;78;934517;-84
2020/12/15 03:00:40;;;;;;;11.37;2.63;;;;;;;8.73;100.00;100340.80;1862479;76;936921;-84
2020/12/15 03:03:10;;;;;;;7.87;1.85;;;;;;;8.86;100.00;100349.27;1809214;77;936539;-84
2020/12/15 03:05:42;;;;;;;10.87;2.60;;;;;;;8.90;100.00;100348.17;1781928;79;934560;-85
2020/12/15 03:08:12;;;;;;;10.17;2.30;;;;;;;8.75;100.00;100355.17;1831745;76;936583;-85
2020/12/15 03:10:41;;;;;;;7.07;2.30;;;;;;;8.97;100.00;100350.89;1821293;77;935390;-84
2020/12/15 03:13:11;;;;;;;8.37;2.37;;;;;;;8.84;100.00;100347.37;1809239;77;944223;-83
2020/12/15 03:15:41;;;;;;;11.10;2.40;;;;;;;8.89;100.00;100353.44;1862176;76;933287;-84
2020/12/15 03:18:11;;;;;;;9.47;2.37;;;;;;;8.92;100.00;100349.53;1809602;77;936594;-84
2020/12/15 03:20:47;;;;;;;9.68;2.50;;;;;;;8.84;100.00;100347.92;1821368;77;934662;-85
2020/12/15 03:23:14;;;;;;;9.03;2.43;;;;;;;8.74;100.00;100355.72;1842355;76;934544;-85
2020/12/15 03:25:44;;;;;;;11.63;2.60;;;;;;;8.86;100.00;100347.89;1859809;76;934590;-85
2020/12/15 03:28:13;;;;;;;8.30;2.08;;;;;;;8.81;100.00;100351.27;1809450;77;936558;-82
2020/12/15 03:30:44;;;;;;;9.07;1.93;;;;;;;8.52;100.00;100351.95;1820719;78;934383;-85
2020/12/15 03:33:14;;;;;;;9.48;2.20;;;;;;;8.72;100.00;100353.81;1850238;76;933319;-84
2020/12/15 03:35:43;;;;;;;8.00;2.17;;;;;;;9.02;100.00;100354.19;1820674;78;933522;-84
2020/12/15 03:38:14;;;;;;;15.13;2.80;;;;;;;9.02;100.00;100356.95;1809549;77;935011;-84
2020/12/15 03:40:44;;;;;;;10.57;2.67;;;;;;;9.21;100.00;100362.07;1821228;77;936581;-85
2020/12/15 03:43:14;;;;;;;14.73;3.37;;;;;;;9.29;100.00;100362.84;1849784;76;935434;-84
2020/12/15 03:45:45;;;;;;;8.90;2.60;;;;;;;9.24;100.00;100363.45;1821566;77;937079;-85
2020/12/15 03:48:16;;;;;;;6.58;2.35;;;;;;;9.13;100.00;100365.45;1850211;76;934434;-84
2020/12/15 03:50:45;;;;;;;12.23;2.50;;;;;;;9.21;100.00;100372.32;1820832;77;932576;-85
2020/12/15 03:53:15;;;;;;;12.53;2.33;;;;;;;9.17;100.00;100374.02;1808934;78;941275;-84
2020/12/15 03:55:47;;;;;;;11.10;2.47;;;;;;;9.18;100.00;100368.20;1791467;78;934723;-86
2020/12/15 03:58:18;;;;;;;9.98;2.65;;;;;;;9.02;100.00;100374.95;1849718;76;936538;-84
2020/12/15 04:00:49;;;;;;;9.53;2.23;;;;;;;8.93;100.00;100375.29;1821359;78;932562;-84
2020/12/15 04:03:19;;;;;;;6.63;2.43;;;;;;;8.90;100.00;100371.12;1849447;76;932550;-83
2020/12/15 04:05:48;;;;;;;7.20;2.13;;;;;;;8.76;100.00;100370.67;1821351;77;932698;-85
2020/12/15 04:08:19;;;;;;;5.10;1.87;;;;;;;8.50;100.00;100374.12;1809255;78;934426;-85
2020/12/15 04:10:49;;;;;;;11.40;2.40;;;;;;;8.52;100.00;100381.02;1862343;76;932338;-84
2020/12/15 04:13:20;;;;;;;9.90;2.23;;;;;;;8.40;100.00;100387.98;1809394;77;935522;-84
2020/12/15 04:15:50;;;;;;;10.50;2.40;;;;;;;8.38;100.00;100383.30;1862171;76;932920;-85
2020/12/15 04:18:19;;;;;;;9.70;2.17;;;;;;;8.34;100.00;100383.05;1809308;77;935477;-83
2020/12/15 04:20:51;;;;;;;9.80;2.30;;;;;;;8.15;100.00;100381.95;1821226;77;932626;-83
2020/12/15 04:23:21;;;;;;;10.87;2.57;;;;;;;8.01;100.00;100380.31;1779688;78;934532;-82
2020/12/15 04:25:55;;;;;;;7.60;1.83;;;;;;;7.94;100.00;100377.57;1862158;76;933474;-82
2020/12/15 04:28:25;;;;;;;7.50;1.70;;;;;;;8.02;100.00;100385.30;1821014;78;934568;-84
2020/12/15 04:30:55;;;;;;;8.53;1.90;;;;;;;8.04;100.00;100382.55;1862348;76;932530;-84
2020/12/15 04:33:25;;;;;;;11.93;2.10;;;;;;;8.00;100.00;100383.37;1809350;78;934444;-84
2020/12/15 04:35:55;;;;;;;7.13;1.80;;;;;;;8.09;100.00;100385.82;1861595;76;934729;-84
2020/12/15 04:38:25;;;;;;;10.53;1.83;;;;;;;7.84;100.00;100386.70;1809582;78;934856;-84
2020/12/15 04:40:55;;;;;;;8.87;1.90;;;;;;;7.85;100.00;100385.60;1862176;76;934713;-83
2020/12/15 04:43:26;;;;;;;10.60;2.10;;;;;;;7.80;100.00;100388.37;1820375;78;934556;-84
2020/12/15 04:45:58;;;;;;;7.07;1.87;;;;;;;7.61;100.00;100395.58;1862174;76;934644;-82
2020/12/15 04:48:31;;;;;;;8.40;1.93;;;;;;;7.62;100.00;100395.28;1820885;78;934638;-83
2020/12/15 04:51:03;;;;;;;18.90;2.30;;;;;;;7.67;100.00;100401.37;1778617;78;934595;-81
2020/12/15 04:53:36;;;;;;;8.23;1.80;;;;;;;7.84;100.00;100397.77;1862355;76;936695;-83
2020/12/15 04:56:10;;;;;;;10.40;1.98;;;;;;;7.74;100.00;100409.65;1809082;77;933295;-83
2020/12/15 04:58:46;;;;;;;11.33;2.03;;;;;;;7.81;100.00;100407.17;1821167;77;936585;-82
2020/12/15 05:01:16;;;;;;;6.97;1.87;;;;;;;7.71;100.00;100410.77;1837231;76;935353;-84
2020/12/15 05:03:49;;;;;;;8.43;2.00;;;;;;;7.66;100.00;100410.76;1807787;78;932723;-84
2020/12/15 05:06:20;;;;;;;7.03;2.00;;;;;;;7.38;100.00;100411.31;1834065;76;933218;-84
2020/12/15 05:08:50;;;;;;;7.10;2.10;;;;;;;7.35;100.00;100420.16;1846788;76;932529;-84
2020/12/15 05:11:20;;;;;;;6.17;1.90;;;;;;;7.41;100.00;100420.42;1808825;77;934632;-83
2020/12/15 05:13:59;;;;;;;7.17;2.33;;;;;;;7.50;100.00;100421.55;1862151;76;932652;-85
2020/12/15 05:16:39;;;;;;;8.97;2.67;;;;;;;7.43;100.00;100427.90;1821154;78;934516;-85
2020/12/15 05:19:09;;;;;;;5.07;2.10;;;;;;;7.35;100.00;100427.06;1850087;76;933390;-84
2020/12/15 05:21:39;;;;;;;5.57;1.60;;;;;;;7.41;100.00;100421.80;1820996;78;934638;-83
2020/12/15 05:24:10;;;;;;;7.53;2.33;;;;;;;7.41;100.00;100428.16;1849875;76;934575;-83
2020/12/15 05:26:42;;;;;;;5.90;1.73;;;;;;;7.37;100.00;100426.22;1820768;77;934567;-83
2020/12/15 05:29:17;;;;;;;9.15;2.00;;;;;;;7.43;100.00;100429.28;1777389;78;933971;-82
2020/12/15 05:31:47;;;;;;;6.60;2.00;;;;;;;7.64;100.00;100426.80;1861882;76;934738;-83
2020/12/15 05:34:23;;;;;;;7.50;1.73;;;;;;;7.34;100.00;100435.91;1808490;77;933451;-83
2020/12/15 05:36:56;;;;;;;10.07;2.47;;;;;;;7.46;100.00;100438.39;1821300;77;932536;-83
2020/12/15 05:39:27;;;;;;;8.23;2.03;;;;;;;7.85;100.00;100438.69;1791384;78;936855;-83
2020/12/15 05:42:05;;;;;;;10.67;2.13;;;;;;;7.93;100.00;100434.81;1862324;76;932690;-82
2020/12/15 05:44:37;;;;;;;10.53;2.73;;;;;;;7.83;100.00;100434.80;1821072;77;935499;-83
2020/12/15 05:47:09;;;;;;;10.43;1.90;;;;;;;7.74;100.00;100440.06;1809018;78;936635;-83
2020/12/15 05:49:42;;;;;;;7.20;1.60;;;;;;;7.56;100.00;100438.42;1862174;76;936611;-83
2020/12/15 05:52:12;;;;;;;10.20;2.37;;;;;;;7.53;100.00;100439.78;1808496;78;934567;-83
2020/12/15 05:54:42;;;;;;;6.57;2.00;;;;;;;7.75;100.00;100438.96;1820795;78;936709;-83
2020/12/15 05:57:13;;;;;;;11.25;2.47;;;;;;;7.71;100.00;100443.39;1849927;76;933441;-82
2020/12/15 05:59:43;;;;;;;10.67;3.63;;;;;;;7.56;100.00;100441.18;1821243;77;935612;-83
2020/12/15 06:02:14;;;;;;;15.03;2.77;;;;;;;7.83;100.00;100454.16;1848380;76;935450;-83
2020/12/15 06:04:44;;;;;;;11.40;2.40;;;;;;;7.82;100.00;100450.31;1821202;77;936668;-85
2020/12/15 06:07:14;;;;;;;15.08;2.40;;;;;;;7.66;100.00;100446.69;1807598;78;936591;-85
2020/12/15 06:09:45;;;;;;;9.07;2.30;;;;;;;7.45;100.00;100443.64;1862441;76;936554;-86
2020/12/15 06:12:15;;;;;;;8.48;2.17;;;;;;;7.51;100.00;100450.30;1809457;77;933315;-84
2020/12/15 06:14:47;;;;;;;9.90;2.77;;;;;;;7.65;100.00;100448.66;1862270;76;932572;-82
2020/12/15 06:17:18;;;;;;;10.10;2.53;;;;;;;7.56;100.00;100440.63;1850258;76;935883;-83
2020/12/15 06:19:53;;;;;;;8.33;2.40;;;;;;;7.72;100.00;100447.81;1821339;77;934556;-83
2020/12/15 06:22:25;;;;;;;10.23;2.70;;;;;;;7.77;100.00;100445.61;1850038;76;933426;-84
2020/12/15 06:25:00;;;;;;;12.10;2.20;;;;;;;7.53;100.00;100453.59;1821617;77;934572;-85
2020/12/15 06:27:33;;;;;;;8.70;2.50;;;;;;;7.63;100.00;100463.84;1821043;78;935569;-84
2020/12/15 06:30:04;;;;;;;8.23;2.40;;;;;;;7.85;100.00;100462.19;1780077;78;933206;-84
2020/12/15 06:32:34;;;;;;;11.73;2.30;;;;;;;7.79;100.00;100458.59;1862694;76;933423;-85
2020/12/15 06:35:11;;;;;;;11.23;2.50;;;;;;;7.96;100.00;100459.13;1809510;77;935378;-82
2020/12/15 06:37:36;;;;;;;8.47;2.20;;;;;;;7.87;100.00;100474.66;1821158;78;935579;-83
2020/12/15 06:40:10;;;;;;;5.92;2.22;;;;;;;7.86;100.00;100465.23;1809056;78;935030;-82
2020/12/15 06:42:49;;;;;;;13.17;2.33;;;;;;;7.90;100.00;100467.72;1821265;78;934443;-84
2020/12/15 06:45:22;;;;;;;7.93;2.37;;;;;;;7.97;100.00;100469.64;1850059;76;936489;-82
2020/12/15 06:48:04;;;;;;;10.07;2.50;;;;;;;7.96;100.00;100469.39;1821282;78;932522;-82
2020/12/15 06:50:45;;;;;;;9.63;2.80;;;;;;;7.71;100.00;100470.20;1821373;77;936515;-82
2020/12/15 06:53:19;;;;;;;11.30;2.58;;;;;;;7.72;100.00;100471.31;1779876;78;934790;-81
2020/12/15 06:55:59;;;;;;;13.00;2.60;;;;;;;7.90;100.00;100468.55;1862092;76;934652;-83
2020/12/15 06:58:30;;;;;;;6.77;2.57;;;;;;;8.01;100.00;100479.05;1821570;77;936658;-84
2020/12/15 07:01:02;;;;;;;13.67;3.43;;;;;;;8.00;100.00;100468.53;1859135;76;934852;-84
2020/12/15 07:03:36;;;;;;;12.90;3.20;;;;;;;8.16;100.00;100463.28;1833110;76;936706;-85
2020/12/15 07:06:10;;;;;;;11.65;3.85;;;;;;;8.09;100.00;100489.55;1809560;77;936572;-84
2020/12/15 07:08:41;;;;;;;13.10;3.13;;;;;;;8.11;100.00;100487.34;1862428;76;936583;-83
2020/12/15 07:11:11;;;;;;;17.55;3.50;;;;;;;8.08;100.00;100488.75;1809669;77;936628;-79
2020/12/15 07:13:43;;;;;;;14.60;2.83;;;;;;;8.50;100.00;100484.28;1862595;76;936147;-82
2020/12/15 07:16:20;;;;;;;17.35;3.30;;;;;;;8.18;100.00;100473.50;1831748;77;936641;-84
2020/12/15 07:18:52;;;;;;;10.77;3.10;;;;;;;8.33;100.00;100493.45;1820699;78;934552;-85
2020/12/15 07:21:23;;;;;;;13.50;3.33;;;;;;;8.47;100.00;100497.28;1850124;76;935624;-84
2020/12/15 07:23:53;;;;;;;9.83;2.80;;;;;;;8.27;100.00;100498.67;1821408;77;934990;-82
2020/12/15 07:26:23;;;;;;;9.83;4.60;;;;;;;8.24;100.00;100511.69;1850310;76;934474;-81
2020/12/15 07:28:54;;;;;;;11.20;2.53;;;;;;;8.19;100.00;100506.98;1819732;78;932650;-82
2020/12/15 07:31:32;;;;;;;12.20;3.47;;;;;;;8.17;100.00;100504.23;1850352;76;936645;-82
2020/12/15 07:34:12;;;;;;;12.40;3.83;;;;;;;8.00;100.00;100504.48;1809579;77;936627;-81
2020/12/15 07:36:45;;;;;;;10.27;3.60;;;;;;;7.97;100.00;100507.81;1820503;77;936536;-82
2020/12/15 07:39:16;;;;;;;13.07;3.50;;;;;;;7.82;100.00;100511.97;1809149;77;936915;-83
2020/12/15 07:42:00;;;;;;;12.13;2.80;;;;;;;7.43;100.00;100524.06;1813382;78;935225;-83
2020/12/15 07:44:29;;;;;;;11.23;3.43;;;;;;;7.68;100.00;100537.09;1844144;77;936636;-83
2020/12/15 07:46:58;;;;;;;12.17;3.20;;;;;;;7.63;100.00;100536.53;1821356;77;934623;-83
2020/12/15 07:49:29;;;;;;;13.23;3.27;;;;;;;7.83;100.00;100536.30;1862617;76;936557;-84
2020/12/15 07:51:59;;;;;;;16.83;4.73;;;;;;;7.76;100.00;100538.77;1821643;77;934837;-83
2020/12/15 07:54:29;;;;;;;9.87;3.17;;;;;;;7.95;100.00;100542.39;1861651;76;936460;-83
2020/12/15 07:57:02;;;;;;;11.23;2.53;;;;;;;7.93;100.00;100543.20;1821573;77;932814;-82
2020/12/15 07:59:33;;;;;;;11.93;3.13;;;;;;;7.82;100.00;100549.30;1821382;77;936624;-82
2020/12/15 08:02:04;;;;;;;11.40;3.00;;;;;;;7.79;100.00;100552.04;1809507;78;936833;-81
2020/12/15 08:04:35;;;;;;;8.83;2.50;;;;;;;8.03;100.00;100548.76;1862301;76;936830;-81
2020/12/15 08:07:06;;;;;;;9.45;2.47;;;;;;;7.98;100.00;100550.13;1809179;78;934746;-86
2020/12/15 08:09:36;;;;;;;10.60;2.30;;;;;;;7.99;100.00;100552.64;1821409;77;934580;-85
2020/12/15 08:12:06;;;;;;;13.45;3.47;;;;;;;8.00;100.00;100552.08;1850178;76;936716;-82
2020/12/15 08:14:41;;;;;;;12.73;2.40;;;;;;;7.96;100.00;100560.08;1818948;77;936663;-83
2020/12/15 08:17:15;;;;;;;8.38;1.95;;;;;;;7.89;100.00;100560.91;1778461;78;937133;-84
2020/12/15 08:19:45;;;;;;;10.27;2.93;;;;;;;7.93;100.00;100562.56;1820817;78;932697;-83
2020/12/15 08:22:20;;;;;;;7.45;1.87;;;;;;;7.86;100.00;100574.45;1809263;76;936848;-78
2020/12/15 08:24:53;;;;;;;9.47;2.50;;;;;;;7.59;100.00;100574.67;1791538;78;932744;-78
2020/12/15 08:27:25;;;;;;;8.10;2.23;;;;;;;7.59;100.00;100568.59;1850252;76;934593;-79
2020/12/15 08:29:55;;;;;;;11.47;3.43;;;;;;;7.43;100.00;100577.95;1821650;77;932652;-80
2020/12/15 08:32:32;;;;;;;11.33;3.40;;;;;;;7.38;100.00;100578.47;1821449;78;936716;-78
2020/12/15 08:35:04;;;;;;;10.30;2.67;;;;;;;7.63;100.00;100592.36;1807645;78;936702;-81
2020/12/15 08:37:37;;;;;;;6.40;2.73;;;;;;;7.67;100.00;100598.46;1821269;78;936764;-81
2020/12/15 08:40:10;;;;;;;4.22;2.02;;;;;;;7.67;100.00;100598.46;1850244;76;934669;-82
2020/12/15 08:42:49;;;;;;;7.87;2.20;;;;;;;7.59;100.00;100601.76;1821608;78;934513;-81
2020/12/15 08:45:19;;;;;;;9.57;3.27;;;;;;;7.47;100.00;100610.84;1849817;76;934583;-81
2020/12/15 08:47:53;;;;;;;11.10;2.23;;;;;;;7.21;100.00;100625.09;1821452;77;932663;-80
2020/12/15 08:50:26;;;;;;;12.37;2.50;;;;;;;7.29;100.00;100625.96;1850112;76;936692;-80
2020/12/15 08:53:06;;;;;;;8.27;2.57;;;;;;;7.35;100.00;100632.89;1821471;78;934956;-80
2020/12/15 08:55:36;;;;;;;6.80;2.10;;;;;;;7.43;100.00;100633.76;1821380;77;934506;-80
2020/12/15 08:58:08;;;;;;;10.45;2.42;;;;;;;7.44;100.00;100646.48;1850204;76;934709;-80
2020/12/15 09:00:42;;;;;;;9.63;2.30;;;;;;;7.41;100.00;100649.21;1820471;77;936861;-80
2020/12/15 09:03:14;;;;;;;11.07;3.03;;;;;;;7.57;100.00;100654.28;1809158;78;934800;-80
2020/12/15 09:05:48;;;;;;;9.37;2.33;;;;;;;7.48;100.00;100653.13;1791644;78;936748;-80
2020/12/15 09:08:19;;;;;;;8.43;3.37;;;;;;;7.56;100.00;100670.03;1809624;77;934626;-80
2020/12/15 09:10:50;;;;;;;8.90;3.17;;;;;;;7.55;100.00;100661.99;1821233;78;932795;-80
2020/12/15 09:13:23;;;;;;;14.37;4.07;;;;;;;7.70;100.00;100663.45;1779852;79;934489;-79
2020/12/15 09:15:56;;;;;;;9.17;3.77;;;;;;;7.90;100.00;100664.89;1862413;76;934811;-79
2020/12/15 09:18:32;;;;;;;11.57;3.73;;;;;;;7.91;100.00;100669.88;1820195;78;934535;-79
2020/12/15 09:21:10;;;;;;;10.57;3.13;;;;;;;8.18;100.00;100670.48;1809267;77;936689;-79
2020/12/15 09:23:42;;;;;;;9.10;3.97;;;;;;;8.28;100.00;100662.75;1862106;76;936845;-79
2020/12/15 09:26:12;;;;;;;9.87;2.40;;;;;;;8.31;100.00;100667.21;1808037;77;934916;-79
2020/12/15 09:28:41;;;;;;;9.13;2.97;;;;;;;8.34;100.00;100663.09;1821288;77;934488;-79
2020/12/15 09:31:14;;;;;;;6.55;2.22;;;;;;;8.34;100.00;100663.92;1849951;76;934599;-78
2020/12/15 09:33:45;;;;;;;8.43;2.07;;;;;;;8.44;100.00;100671.37;1821545;77;934693;-79
2020/12/15 09:36:16;;;;;;;7.93;1.47;;;;;;;8.71;100.00;100669.19;1808979;77;933458;-79
2020/12/15 09:38:48;;;;;;;12.67;2.00;;;;;;;8.67;100.00;100669.46;1862249;76;932907;-79
2020/12/15 09:41:18;;;;;;;7.80;2.20;;;;;;;8.70;100.00;100675.82;1809575;77;936834;-79
2020/12/15 09:43:48;;;;;;;11.33;2.00;;;;;;;8.87;100.00;100676.92;1862253;76;932627;-79
2020/12/15 09:46:18;;;;;;;8.63;1.77;;;;;;;9.02;100.00;100678.30;1809669;78;936565;-80
2020/12/15 09:48:48;;;;;;;9.70;1.90;;;;;;;9.18;100.00;100682.70;1821346;77;932712;-81
2020/12/15 09:51:18;;;;;;;6.13;2.37;;;;;;;9.26;100.00;100684.90;1849096;76;934497;-80
2020/12/15 09:53:49;;;;;;;7.67;1.73;;;;;;;9.31;100.00;100691.83;1821708;77;932611;-81
2020/12/15 09:56:19;;;;;;;7.80;1.93;;;;;;;9.47;100.00;100689.28;1850228;76;934593;-79
2020/12/15 09:58:49;;;;;;;6.50;2.63;;;;;;;9.86;100.00;100701.89;1821875;78;932909;-78
2020/12/15 10:01:19;;;;;;;2.90;1.40;;;;;;;9.86;100.00;100701.89;1850142;76;934506;-79
2020/12/15 10:03:49;;;;;;;6.87;1.77;;;;;;;10.03;100.00;100711.25;1821431;78;932535;-79
2020/12/15 10:06:20;;;;;;;13.13;1.90;;;;;;;10.06;100.00;100732.87;1809311;77;936556;-79
2020/12/15 10:08:50;;;;;;;7.37;2.03;;;;;;;9.96;100.00;100739.31;1791574;78;937107;-79
2020/12/15 10:11:21;;;;;;;12.47;2.17;;;;;;;9.76;100.00;100751.85;1849642;76;934762;-79
2020/12/15 10:13:52;;;;;;;9.13;2.13;;;;;;;9.66;100.00;100757.45;1821463;78;934732;-79
2020/12/15 10:16:22;;;;;;;8.17;1.60;;;;;;;9.60;100.00;100755.79;1809638;77;934469;-80
2020/12/15 10:18:53;;;;;;;6.83;2.03;;;;;;;9.51;100.00;100743.61;1820405;78;932777;-80
2020/12/15 10:21:24;;;;;;;4.60;1.80;;;;;;;9.58;100.00;100740.00;1780040;78;934850;-80
2020/12/15 10:23:53;;;;;;;8.70;1.70;;;;;;;9.50;100.00;100725.30;1862471;76;932626;-80
2020/12/15 10:26:25;;;;;;;2.83;1.60;;;;;;;9.45;100.00;100712.86;1809547;78;935451;-80
2020/12/15 10:28:56;;;;;;;3.27;1.20;;;;;;;9.40;100.00;100715.09;1862223;76;932522;-79
2020/12/15 10:31:26;;;;;;;4.70;1.43;;;;;;;9.41;100.00;100714.54;1821542;77;935088;-79
2020/12/15 10:33:56;;;;;;;3.60;1.00;;;;;;;9.39;100.00;100715.36;1821320;78;932825;-79
2020/12/15 10:36:27;;;;;;;6.30;1.77;;;;;;;9.29;100.00;100713.44;1862355;76;934547;-80
2020/12/15 10:38:57;;;;;;;4.50;1.33;;;;;;;9.22;100.00;100720.38;1821616;77;932634;-79
2020/12/15 10:41:28;;;;;;;2.75;1.30;;;;;;;9.24;100.00;100719.56;1862457;76;934642;-80
2020/12/15 10:43:58;;;;;;;3.90;1.40;;;;;;;9.21;100.00;100722.88;1821710;77;932663;-80
2020/12/15 10:46:28;;;;;;;4.47;1.83;;;;;;;9.18;100.00;100724.82;1862661;76;934668;-79
2020/12/15 10:48:58;;;;;;;3.43;1.40;;;;;;;9.29;100.00;100716.20;1821565;77;933008;-79
2020/12/15 10:51:28;;;;;;;4.70;1.67;;;;;;;9.28;100.00;100722.05;1862050;76;934613;-79
2020/12/15 10:53:58;;;;;;;6.57;1.97;;;;;;;9.33;100.00;100723.40;1821477;77;932674;-79
2020/12/15 10:56:28;;;;;;;6.17;2.57;;;;;;;9.35;100.00;100712.33;1821163;78;934791;-79
2020/12/15 10:58:58;;;;;;;9.20;3.10;;;;;;;9.43;100.00;100717.30;1821295;78;932902;-79
2020/12/15 11:01:29;;;;;;;7.77;2.70;;;;;;;9.40;100.00;100710.09;1862173;76;934710;-79
2020/12/15 11:03:58;;;;;;;10.10;2.97;;;;;;;9.48;100.00;100724.77;1821535;77;932870;-80
2020/12/15 11:06:36;;;;;;;6.20;2.90;;;;;;;9.56;100.00;100725.02;1819723;78;936660;-79
2020/12/15 11:09:10;;;;;;;8.05;3.00;;;;;;;9.69;100.00;100726.92;1850461;76;937386;-79
2020/12/15 11:11:49;;;;;;;4.33;2.50;;;;;;;9.74;100.00;100723.59;1807872;77;934526;-79
2020/12/15 11:14:19;;;;;;;4.43;2.00;;;;;;;9.70;100.00;100725.27;1834195;76;934590;-79
2020/12/15 11:16:53;;;;;;;8.27;2.20;;;;;;;9.77;100.00;100723.56;1820814;78;932868;-80
2020/12/15 11:19:22;;;;;;;4.13;1.80;;;;;;;9.78;100.00;100717.74;1850192;76;934452;-81
2020/12/15 11:21:55;;;;;;;7.23;1.97;;;;;;;9.95;100.00;100716.00;1813252;78;932578;-80
2020/12/15 11:24:31;;;;;;;6.30;2.13;;;;;;;10.07;100.00;100719.27;1832610;76;933695;-80
2020/12/15 11:27:01;;;;;;;7.93;2.17;;;;;;;10.24;100.00;100724.48;1780007;79;935561;-81
2020/12/15 11:29:33;;;;;;;7.80;2.00;;;;;;;10.22;100.00;100726.18;1861950;76;935759;-80
2020/12/15 11:32:13;;;;;;;4.60;1.60;;;;;;;10.20;100.00;100727.56;1808993;77;935562;-81